.
WxDataArchive / Data Records for 2009-04-27
2009-04-26 April 2009 2009-04-28

Data Records for Monday, 27 April 2009

Time	Temp	Chill	HIndex	Humid	Dewpt	 Wind 	HiWind	WindDir	Rain 	Barom 
-----	----	-----	------	-----	-----	------	------	-------	-----	----- 
00:00	71.1	71.1	71.1	45	48.7	0	2	90	0.00	30.099 
00:05	70.9	70.9	70.9	46	49.1	0	3	112	0.00	30.099 
00:10	70.8	70.8	70.8	46	49.0	1	3	112	0.00	30.099 
00:15	70.6	70.6	70.6	46	48.8	1	2	112	0.00	30.097 
00:20	70.6	70.6	70.6	46	48.8	0	2	112	0.00	30.097 
00:25	70.4	70.4	70.4	47	49.2	0	2	112	0.00	30.097 
00:30	70.3	70.3	70.3	47	49.1	1	6	68	0.00	30.092 
00:35	69.9	69.9	69.9	47	48.7	0	4	90	0.00	30.092 
00:40	69.8	69.8	69.8	48	49.2	0	2	90	0.00	30.092 
00:45	69.4	69.4	69.4	49	49.4	1	4	90	0.00	30.091 
00:50	69.4	69.4	69.4	49	49.4	1	4	248	0.00	30.091 
00:55	69.6	69.6	69.6	48	49.0	1	6	270	0.00	30.091 
01:00	69.9	69.9	69.9	48	49.3	1	4	292	0.00	30.090 
01:05	70.4	70.4	70.4	47	49.2	2	6	248	0.00	30.090 
01:10	70.9	70.9	70.9	46	49.1	1	6	248	0.00	30.090 
01:15	70.9	70.9	70.9	47	49.7	1	4	158	0.00	30.090 
01:20	70.4	70.4	70.4	47	49.2	1	4	270	0.00	30.090 
01:25	70.1	70.1	70.1	48	49.5	0	1	270	0.00	30.090 
01:30	69.8	69.8	69.8	49	49.8	0	3	270	0.00	30.092 
01:35	69.4	69.4	69.4	50	49.9	0	2	270	0.00	30.092 
01:40	68.9	68.9	68.9	51	50.0	0	1	270	0.00	30.092 
01:45	68.4	68.4	68.4	52	50.1	0	1	270	0.00	30.093 
01:50	68.1	68.1	68.1	52	49.8	0	1	270	0.00	30.093 
01:55	67.6	67.6	67.6	53	49.9	0	1	270	0.00	30.093 
02:00	67.4	67.4	67.4	54	50.2	0	1	270	0.00	30.093 
02:05	67.1	67.1	67.1	54	49.9	0	1	270	0.00	30.093 
02:10	66.8	66.8	66.8	55	50.1	0	1	270	0.00	30.093 
02:15	66.4	66.4	66.4	56	50.2	0	1	270	0.00	30.094 
02:20	66.1	66.1	66.1	56	49.9	0	1	270	0.00	30.094 
02:25	66.0	66.0	66.0	57	50.3	0	1	270	0.00	30.094 
02:30	65.8	65.8	65.8	57	50.1	0	1	270	0.00	30.095 
02:35	65.8	65.8	65.8	57	50.1	0	2	270	0.00	30.095 
02:40	65.8	65.8	65.8	56	49.7	0	2	270	0.00	30.095 
02:45	66.1	66.1	66.1	56	49.9	0	3	270	0.00	30.094 
02:50	66.1	66.1	66.1	56	49.9	0	2	270	0.00	30.094 
02:55	66.0	66.0	66.0	56	49.8	0	1	270	0.00	30.094 
03:00	66.0	66.0	66.0	57	50.3	0	1	270	0.00	30.093 
03:05	65.8	65.8	65.8	57	50.1	0	1	270	0.00	30.093 
03:10	65.8	65.8	65.8	57	50.1	0	2	248	0.00	30.093 
03:15	65.8	65.8	65.8	57	50.1	0	1	248	0.00	30.092 
03:20	65.8	65.8	65.8	57	50.1	0	2	248	0.00	30.092 
03:25	65.8	65.8	65.8	57	50.1	0	2	248	0.00	30.092 
03:30	66.0	66.0	66.0	57	50.3	0	2	248	0.00	30.086 
03:35	66.1	66.1	66.1	57	50.4	0	3	315	0.00	30.086 
03:40	66.3	66.3	66.3	57	50.6	0	2	0	0.00	30.086 
03:45	66.3	66.3	66.3	57	50.6	0	2	338	0.00	30.087 
03:50	66.4	66.4	66.4	57	50.7	1	3	68	0.00	30.087 
03:55	66.8	66.8	66.8	56	50.6	1	4	315	0.00	30.087 
04:00	66.9	66.9	66.9	56	50.7	1	3	270	0.00	30.086 
04:05	67.1	67.1	67.1	56	50.9	1	3	0	0.00	30.086 
04:10	67.1	67.1	67.1	56	50.9	1	3	292	0.00	30.086 
04:15	67.3	67.3	67.3	56	51.1	1	5	338	0.00	30.082 
04:20	67.4	67.4	67.4	56	51.1	1	4	315	0.00	30.082 
04:25	67.6	67.6	67.6	55	50.8	1	4	225	0.00	30.082 
04:30	67.4	67.4	67.4	56	51.1	1	3	0	0.00	30.081 
04:35	67.4	67.4	67.4	56	51.1	1	4	0	0.00	30.081 
04:40	67.3	67.3	67.3	56	51.1	1	4	292	0.00	30.081 
04:45	67.1	67.1	67.1	56	50.9	1	3	338	0.00	30.087 
04:50	67.1	67.1	67.1	57	51.3	1	3	90	0.00	30.087 
04:55	66.9	66.9	66.9	57	51.2	0	3	225	0.00	30.087 
05:00	66.8	66.8	66.8	57	51.1	1	2	315	0.00	30.092 
05:05	66.8	66.8	66.8	57	51.1	1	5	225	0.00	30.092 
05:10	66.8	66.8	66.8	57	51.1	1	5	68	0.00	30.092 
05:15	66.8	66.8	66.8	58	51.5	1	6	270	0.00	30.090 
05:20	66.6	66.6	66.6	58	51.4	1	3	248	0.00	30.090 
05:25	66.6	66.6	66.6	58	51.4	1	4	248	0.00	30.090 
05:30	66.6	66.6	66.6	58	51.4	1	4	270	0.00	30.090 
05:35	66.6	66.6	66.6	58	51.4	0	2	270	0.00	30.090 
05:40	66.4	66.4	66.4	58	51.2	1	3	248	0.00	30.090 
05:45	66.3	66.3	66.3	59	51.5	0	4	248	0.00	30.093 
05:50	66.0	66.0	66.0	59	51.3	1	5	248	0.00	30.093 
05:55	65.8	65.8	65.8	60	51.5	0	3	158	0.00	30.093 
06:00	65.5	65.5	65.5	61	51.7	0	1	158	0.00	30.098 
06:05	65.2	65.2	65.2	61	51.4	0	1	158	0.00	30.098 
06:10	64.8	64.8	64.8	62	51.5	0	2	180	0.00	30.098 
06:15	64.7	64.7	64.7	62	51.4	0	1	270	0.00	30.103 
06:20	64.5	64.5	64.5	63	51.6	0	1	270	0.00	30.103 
06:25	64.5	64.5	64.5	63	51.6	1	4	292	0.00	30.103 
06:30	64.7	64.7	64.7	62	51.4	0	2	158	0.00	30.107 
06:35	64.5	64.5	64.5	63	51.6	0	2	158	0.00	30.107 
06:40	64.5	64.5	64.5	63	51.6	1	2	68	0.00	30.107 
06:45	64.5	64.5	64.5	63	51.6	1	3	68	0.00	30.111 
06:50	64.7	64.7	64.7	63	51.8	0	2	68	0.00	30.111 
06:55	64.7	64.7	64.7	63	51.8	1	3	68	0.00	30.111 
07:00	64.7	64.7	64.7	63	51.8	0	3	68	0.00	30.112 
07:05	64.7	64.7	64.7	63	51.8	1	3	112	0.00	30.112 
07:10	64.8	64.8	64.8	63	51.9	1	4	112	0.00	30.112 
07:15	64.8	64.8	64.8	63	51.9	1	4	112	0.00	30.115 
07:20	65.0	65.0	65.0	63	52.1	1	5	112	0.00	30.115 
07:25	65.0	65.0	65.0	63	52.1	0	3	112	0.00	30.115 
07:30	65.2	65.2	65.2	63	52.3	1	5	45	0.00	30.125 
07:35	65.3	65.3	65.3	63	52.4	1	5	68	0.00	30.125 
07:40	65.6	65.6	65.6	63	52.7	1	3	68	0.00	30.125 
07:45	65.8	65.8	65.8	62	52.4	1	2	270	0.00	30.127 
07:50	66.0	66.0	66.0	62	52.6	1	4	112	0.00	30.127 
07:55	66.3	66.3	66.3	62	52.9	1	3	270	0.00	30.127 
08:00	66.6	66.6	66.6	61	52.7	1	6	315	0.00	30.125 
08:05	66.9	66.9	66.9	61	53.0	1	4	68	0.00	30.125 
08:10	67.3	67.3	67.3	60	52.9	1	4	112	0.00	30.125 
08:15	67.8	67.8	67.8	60	53.4	1	5	248	0.00	30.138 
08:20	68.1	68.1	68.1	58	52.8	2	6	68	0.00	30.138 
08:25	68.4	68.4	68.4	59	53.5	2	6	270	0.00	30.138 
08:30	68.8	68.8	68.8	58	53.4	2	6	292	0.00	30.138 
08:35	69.3	69.3	69.3	58	53.9	1	4	248	0.00	30.138 
08:40	69.6	69.6	69.6	57	53.7	2	5	270	0.00	30.138 
08:45	69.9	69.9	69.9	56	53.5	2	5	270	0.00	30.140 
08:50	70.3	70.3	70.3	56	53.8	2	7	68	0.00	30.140 
08:55	70.6	70.6	70.6	54	53.1	3	7	248	0.00	30.140 
09:00	70.9	70.9	70.9	55	53.9	2	7	248	0.00	30.140 
09:05	71.3	71.3	71.3	52	52.8	3	10	248	0.00	30.140 
09:10	71.6	71.6	71.6	53	53.5	4	10	248	0.00	30.140 
09:15	72.0	72.0	72.0	52	53.4	3	10	248	0.00	30.141 
09:20	72.3	72.3	72.3	52	53.7	3	11	248	0.00	30.141 
09:25	72.7	72.7	72.7	52	54.0	4	9	270	0.00	30.141 
09:30	73.0	73.0	73.0	51	53.8	3	10	225	0.00	30.141 
09:35	73.0	73.0	73.0	50	53.2	5	12	270	0.00	30.141 
09:40	73.2	73.2	73.2	50	53.4	5	12	248	0.00	30.141 
09:45	73.7	73.7	73.7	51	54.4	3	11	225	0.00	30.141 
09:50	74.0	74.0	74.0	50	54.2	3	7	270	0.00	30.141 
09:55	74.2	74.2	74.2	49	53.8	5	12	248	0.00	30.141 
10:00	74.6	74.6	74.6	50	54.7	3	7	248	0.00	30.139 
10:05	74.7	74.7	74.7	45	51.9	5	13	248	0.00	30.139 
10:10	75.1	75.1	77.7	48	54.1	3	9	248	0.00	30.139 
10:15	75.4	75.4	77.8	49	54.9	4	11	248	0.00	30.143 
10:20	75.4	75.4	77.8	48	54.3	5	17	248	0.00	30.143 
10:25	75.4	75.4	77.8	47	53.7	6	15	270	0.00	30.143 
10:30	75.8	75.8	78.0	48	54.7	4	12	248	0.00	30.146 
10:35	76.0	76.0	78.0	48	54.9	4	10	248	0.00	30.146 
10:40	76.3	76.3	78.2	48	55.1	5	14	270	0.00	30.146 
10:45	76.1	76.1	78.1	48	55.0	6	14	270	0.00	30.151 
10:50	76.5	76.5	78.3	47	54.7	6	17	248	0.00	30.151 
10:55	76.8	76.8	78.4	47	55.0	4	13	248	0.00	30.151 
11:00	77.0	77.0	78.5	46	54.6	5	14	248	0.00	30.150 
11:05	77.2	77.2	78.6	46	54.8	5	13	248	0.00	30.150 
11:10	76.8	76.8	78.4	47	55.0	6	14	248	0.00	30.150 
11:15	77.0	77.0	78.5	46	54.6	5	12	270	0.00	30.154 
11:20	77.6	77.6	78.9	48	56.3	5	14	225	0.00	30.154 
11:25	77.4	77.4	78.7	46	55.0	6	13	248	0.00	30.154 
11:30	76.8	76.8	78.4	46	54.4	7	16	270	0.00	30.156 
11:35	76.7	76.7	78.3	46	54.3	6	18	248	0.00	30.156 
11:40	77.2	77.2	78.6	47	55.4	4	11	248	0.00	30.156 
11:45	77.2	77.2	78.5	45	54.2	5	14	270	0.00	30.154 
11:50	76.8	76.8	78.4	46	54.4	5	19	270	0.00	30.154 
11:55	77.4	77.4	78.7	47	55.6	5	16	270	0.00	30.154 
12:00	77.4	77.4	78.6	44	53.8	4	11	248	0.00	30.154 
12:05	77.2	77.2	78.5	45	54.2	5	15	248	0.00	30.154 
12:10	77.4	77.4	78.6	45	54.4	4	9	248	0.00	30.154 
12:15	77.6	77.6	78.8	47	55.8	3	11	248	0.00	30.152 
12:20	78.1	78.1	79.2	48	56.8	4	9	248	0.00	30.152 
12:25	78.5	78.5	79.2	44	54.7	6	15	248	0.00	30.152 
12:30	78.5	78.5	79.1	42	53.5	6	15	270	0.00	30.152 
12:35	78.3	78.3	78.9	41	52.6	6	16	270	0.00	30.152 
12:40	78.3	78.3	79.1	43	53.9	4	12	270	0.00	30.152 
12:45	78.8	78.8	79.3	42	53.7	5	12	270	0.00	30.145 
12:50	78.8	78.8	79.2	41	53.1	5	12	248	0.00	30.145 
12:55	78.8	78.8	79.2	41	53.1	6	15	248	0.00	30.145 
13:00	79.0	79.0	79.4	41	53.3	6	24	248	0.00	30.139 
13:05	78.8	78.8	79.3	42	53.7	5	13	248	0.00	30.139 
13:10	78.8	78.8	79.2	40	52.4	4	15	248	0.00	30.139 
13:15	78.8	78.8	79.2	40	52.4	5	20	248	0.00	30.138 
13:20	79.4	79.4	79.5	39	52.3	5	15	248	0.00	30.138 
13:25	79.0	79.0	79.3	40	52.6	6	16	270	0.00	30.138 
13:30	79.0	79.0	79.3	40	52.6	5	16	248	0.00	30.137 
13:35	79.0	79.0	79.2	39	51.9	6	16	270	0.00	30.137 
13:40	78.8	78.8	79.1	39	51.7	7	15	270	0.00	30.137 
13:45	78.8	78.8	79.2	40	52.4	4	13	248	0.00	30.133 
13:50	78.6	78.6	79.1	41	52.9	4	12	270	0.00	30.133 
13:55	78.6	78.6	79.0	40	52.2	6	15	270	0.00	30.133 
14:00	78.6	78.6	79.1	41	52.9	5	16	270	0.00	30.128 
14:05	79.0	79.0	79.4	41	53.3	5	14	270	0.00	30.128 
14:10	79.2	79.2	79.3	39	52.1	6	12	248	0.00	30.128 
14:15	79.2	79.2	79.4	40	52.8	5	17	270	0.00	30.128 
14:20	79.8	79.8	79.9	41	54.0	5	14	248	0.00	30.128 
14:25	80.5	80.5	80.3	40	53.9	3	12	270	0.00	30.128 
14:30	81.1	81.1	80.4	37	52.3	5	11	270	0.00	30.120 
14:35	81.1	81.1	80.6	39	53.8	5	13	248	0.00	30.120 
14:40	81.1	81.1	80.4	36	51.6	5	12	270	0.00	30.120 
14:45	80.5	80.5	79.9	36	51.1	5	14	248	0.00	30.117 
14:50	80.5	80.5	80.2	39	53.2	4	13	270	0.00	30.117 
14:55	80.3	80.3	80.0	38	52.4	4	15	248	0.00	30.117 
15:00	81.1	81.1	80.7	40	54.5	3	9	248	0.00	30.117 
15:05	81.1	81.1	80.4	37	52.3	4	14	270	0.00	30.117 
15:10	80.3	80.3	79.8	36	50.9	5	10	270	0.00	30.117 
15:15	80.5	80.5	80.0	37	51.8	4	15	248	0.00	30.110 
15:20	80.9	80.9	80.3	37	52.2	3	13	270	0.00	30.110 
15:25	81.1	81.1	80.4	36	51.6	3	10	248	0.00	30.110 
15:30	81.4	81.4	80.6	36	51.9	4	12	270	0.00	30.108 
15:35	81.1	81.1	80.2	34	50.0	4	9	270	0.00	30.108 
15:40	80.5	80.5	79.9	35	50.3	3	9	270	0.00	30.108 
15:45	80.3	80.3	79.7	35	50.1	4	14	270	0.00	30.111 
15:50	80.3	80.3	79.5	32	47.7	5	13	248	0.00	30.111 
15:55	80.3	80.3	79.5	32	47.7	5	13	248	0.00	30.111 
16:00	80.1	80.1	79.5	34	49.2	3	10	270	0.00	30.109 
16:05	80.1	80.1	79.4	32	47.6	4	11	248	0.00	30.109 
16:10	79.9	79.9	79.4	34	49.0	4	12	248	0.00	30.109 
16:15	79.8	79.8	79.2	32	47.3	4	11	248	0.00	30.108 
16:20	79.9	79.9	79.2	31	46.5	5	13	248	0.00	30.108 
16:25	79.9	79.9	79.2	31	46.5	3	11	248	0.00	30.108 
16:30	80.1	80.1	79.3	31	46.7	4	9	248	0.00	30.108 
16:35	80.1	80.1	79.2	30	45.8	3	7	248	0.00	30.108 
16:40	80.1	80.1	79.5	34	49.2	2	6	248	0.00	30.108 
16:45	80.3	80.3	79.2	28	44.2	2	7	270	0.00	30.106 
16:50	80.3	80.3	79.4	30	46.0	2	7	225	0.00	30.106 
16:55	80.5	80.5	79.3	27	43.4	4	11	270	0.00	30.106 
17:00	80.7	80.7	79.5	28	44.5	4	12	248	0.00	30.099 
17:05	80.9	80.9	79.5	27	43.8	2	6	248	0.00	30.099 
17:10	81.2	81.2	79.7	27	44.0	4	9	270	0.00	30.099 
17:15	81.6	81.6	80.1	28	45.3	4	14	270	0.00	30.094 
17:20	81.6	81.6	80.0	27	44.4	3	7	248	0.00	30.094 
17:25	81.6	81.6	80.1	28	45.3	2	10	248	0.00	30.094 
17:30	81.4	81.4	79.9	27	44.2	3	10	248	0.00	30.096 
17:35	81.1	81.1	79.7	28	44.9	4	11	248	0.00	30.096 
17:40	81.1	81.1	79.7	28	44.9	4	7	270	0.00	30.096 
17:45	81.2	81.2	79.8	28	45.0	3	9	270	0.00	30.099 
17:50	81.1	81.1	79.7	28	44.9	2	9	225	0.00	30.099 
17:55	80.9	80.9	79.5	27	43.8	4	11	248	0.00	30.099 
18:00	80.9	80.9	79.6	28	44.7	2	5	248	0.00	30.102 
18:05	80.9	80.9	79.6	28	44.7	4	9	248	0.00	30.102 
18:10	80.7	80.7	79.5	28	44.5	2	7	248	0.00	30.102 
18:15	80.5	80.5	79.4	29	45.3	3	10	270	0.00	30.106 
18:20	80.3	80.3	79.2	27	43.2	4	11	248	0.00	30.106 
18:25	80.1	80.1	79.1	28	44.0	3	7	270	0.00	30.106 
18:30	80.1	80.1	79.1	28	44.0	3	10	270	0.00	30.110 
18:35	80.5	80.5	79.3	27	43.4	4	8	270	0.00	30.110 
18:40	80.7	80.7	79.5	28	44.5	3	12	248	0.00	30.110 
18:45	80.3	80.3	79.2	28	44.2	4	11	248	0.00	30.111 
18:50	79.9	79.9	79.1	29	44.8	3	13	248	0.00	30.111 
18:55	79.8	79.8	79.1	31	46.5	3	12	248	0.00	30.111 
19:00	79.6	79.6	79.0	30	45.4	4	13	248	0.00	30.113 
19:05	79.4	79.4	78.9	31	46.1	3	6	248	0.00	30.113 
19:10	79.2	79.2	78.7	30	45.1	4	12	248	0.00	30.113 
19:15	79.0	79.0	78.7	31	45.8	2	6	248	0.00	30.112 
19:20	78.8	78.8	78.6	32	46.4	2	6	248	0.00	30.112 
19:25	78.6	78.6	78.5	32	46.3	2	6	248	0.00	30.112 
19:30	78.5	78.5	78.6	33	47.0	3	7	248	0.00	30.111 
19:35	78.3	78.3	78.5	33	46.8	2	6	248	0.00	30.111 
19:40	78.1	78.1	78.4	34	47.4	2	5	270	0.00	30.111 
19:45	77.9	77.9	78.4	35	48.0	2	6	248	0.00	30.113 
19:50	77.7	77.7	78.3	35	47.8	1	4	248	0.00	30.113 
19:55	77.6	77.6	78.3	36	48.5	1	3	270	0.00	30.113 
20:00	77.4	77.4	78.2	36	48.3	2	10	248	0.00	30.112 
20:05	77.2	77.2	78.2	37	48.9	2	5	248	0.00	30.112 
20:10	77.0	77.0	78.1	37	48.7	2	7	248	0.00	30.112 
20:15	76.3	76.3	78.1	46	54.0	3	5	270	0.00	30.121 
20:20	74.7	74.7	74.7	51	55.4	3	5	248	0.00	30.121 
20:25	73.5	73.5	73.5	54	55.8	2	4	270	0.00	30.121 
20:30	72.8	72.8	72.8	56	56.2	2	5	248	0.00	30.127 
20:35	72.3	72.3	72.3	58	56.7	0	2	248	0.00	30.127 
20:40	71.8	71.8	71.8	59	56.7	0	2	270	0.00	30.127 
20:45	71.3	71.3	71.3	61	57.1	0	2	270	0.00	30.131 
20:50	70.9	70.9	70.9	62	57.2	1	3	270	0.00	30.131 
20:55	70.6	70.6	70.6	63	57.4	1	2	270	0.00	30.131 
21:00	70.3	70.3	70.3	64	57.5	1	5	270	0.00	30.137 
21:05	70.3	70.3	70.3	64	57.5	2	4	270	0.00	30.137 
21:10	69.9	69.9	69.9	65	57.6	2	5	270	0.00	30.137 
21:15	69.6	69.6	69.6	66	57.7	1	2	270	0.00	30.137 
21:20	69.3	69.3	69.3	67	57.9	0	2	270	0.00	30.137 
21:25	69.1	69.1	69.1	68	58.1	0	1	270	0.00	30.137 
21:30	68.8	68.8	68.8	68	57.8	0	1	270	0.00	30.140 
21:35	68.4	68.4	68.4	69	57.8	0	1	270	0.00	30.140 
21:40	68.3	68.3	68.3	69	57.7	0	1	270	0.00	30.140 
21:45	68.1	68.1	68.1	70	57.9	0	1	270	0.00	30.139 
21:50	67.9	67.9	67.9	71	58.1	0	3	225	0.00	30.139 
21:55	67.8	67.8	67.8	71	58.0	0	1	225	0.00	30.139 
22:00	67.6	67.6	67.6	72	58.2	0	1	225	0.00	30.141 
22:05	67.6	67.6	67.6	72	58.2	0	1	225	0.00	30.141 
22:10	67.4	67.4	67.4	73	58.4	0	1	225	0.00	30.141 
22:15	67.4	67.4	67.4	73	58.4	0	0	---	0.00	30.141 
22:20	67.3	67.3	67.3	73	58.3	0	0	---	0.00	30.141 
22:25	67.1	67.1	67.1	74	58.5	0	0	---	0.00	30.141 
22:30	66.8	66.8	66.8	74	58.2	0	0	---	0.00	30.140 
22:35	66.6	66.6	66.6	75	58.4	0	0	---	0.00	30.140 
22:40	66.4	66.4	66.4	75	58.2	0	0	---	0.00	30.140 
22:45	66.3	66.3	66.3	76	58.5	0	0	---	0.00	30.140 
22:50	66.1	66.1	66.1	77	58.7	0	0	---	0.00	30.140 
22:55	66.0	66.0	66.0	77	58.6	0	0	---	0.00	30.140 
23:00	66.0	66.0	66.0	77	58.6	0	0	---	0.00	30.138 
23:05	65.8	65.8	65.8	78	58.7	0	0	---	0.00	30.138 
23:10	65.8	65.8	65.8	78	58.7	0	0	---	0.00	30.138 
23:15	65.8	65.8	65.8	78	58.7	0	0	---	0.00	30.131 
23:20	65.6	65.6	65.6	79	58.9	0	0	---	0.00	30.131 
23:25	65.6	65.6	65.6	79	58.9	0	0	---	0.00	30.131 
23:30	65.6	65.6	65.6	79	58.9	0	0	---	0.00	30.131 
23:35	65.6	65.6	65.6	79	58.9	0	0	---	0.00	30.131 
23:40	65.6	65.6	65.6	79	58.9	0	0	---	0.00	30.131 
23:45	65.8	65.8	65.8	79	59.1	0	0	---	0.00	30.141 
23:50	66.0	66.0	66.0	79	59.3	0	0	---	0.00	30.141 
23:55	66.0	66.0	66.0	79	59.3	0	0	---	0.00	30.141 

CoCoRaHS
IN-AL-39
A2 Web Hosting
Creative Commons License
GoDaddy
search engine by freefind advanced

loaded 2018-11-21 01:26:51 • last modified 2010-11-18 10:43:29
Privacy PolicyDisclaimer
• wx.awcolley.com is powered by PmWiki v.2002016 •
• all content (unless otherwise noted) © 2018 A W Colley